Time;durP1;ratioP1;P1;durP2;ratioP2;P2;SDS_P1;SDS_P2;PMS_P1;PMS_P2;Temp;Humidity;BMP_temperature;BMP_pressure;BME280_temperature;BME280_humidity;BME280_pressure;Samples;Min_cycle;Max_cycle;Signal;HPM_P1;HPM_P2
2022/06/03 00:01:07;;;;;;;2.28;1.30;;;;;;;;;;5014029;28;20382;-54
2022/06/03 00:04:11;;;;;;;1.58;1.15;;;;;;;;;;5013664;28;20030;-51
2022/06/03 00:06:37;;;;;;;1.52;1.20;;;;;;;;;;4913673;29;20438;-50
2022/06/03 00:09:03;;;;;;;1.73;1.35;;;;;;;;;;4915677;29;20036;-51
2022/06/03 00:11:37;;;;;;;1.55;1.27;;;;;;;;;;4961053;28;20133;-50
2022/06/03 00:14:03;;;;;;;1.80;1.38;;;;;;;;;;5014494;28;20045;-53
2022/06/03 00:16:52;;;;;;;2.28;1.30;;;;;;;;;;5014305;28;20025;-51
2022/06/03 00:19:18;;;;;;;3.40;1.77;;;;;;;;;;4986192;28;20026;-52
2022/06/03 00:21:47;;;;;;;1.60;1.23;;;;;;;;;;5013086;28;20089;-52
2022/06/03 00:24:13;;;;;;;1.92;1.42;;;;;;;;;;5013554;28;20021;-50
2022/06/03 00:26:57;;;;;;;2.13;1.23;;;;;;;;;;5012735;28;20479;-53
2022/06/03 00:29:47;;;;;;;2.08;1.20;;;;;;;;;;5008942;28;20014;-51
2022/06/03 00:32:13;;;;;;;1.77;1.45;;;;;;;;;;5006674;28;20491;-51
2022/06/03 00:34:58;;;;;;;2.72;1.45;;;;;;;;;;5013100;28;20105;-54
2022/06/03 00:37:50;;;;;;;2.45;1.63;;;;;;;;;;5009118;28;20029;-52
2022/06/03 00:40:23;;;;;;;1.60;1.20;;;;;;;;;;5005436;28;20094;-51
2022/06/03 00:42:48;;;;;;;2.90;1.35;;;;;;;;;;5012673;28;20033;-52
2022/06/03 00:45:20;;;;;;;2.10;1.75;;;;;;;;;;5013363;28;20038;-54
2022/06/03 00:48:05;;;;;;;1.58;1.23;;;;;;;;;;5010792;28;20124;-55
2022/06/03 00:50:31;;;;;;;1.42;1.33;;;;;;;;;;5011042;28;20040;-52
2022/06/03 00:52:57;;;;;;;2.03;1.27;;;;;;;;;;5012865;28;20113;-54
2022/06/03 00:55:23;;;;;;;1.58;1.13;;;;;;;;;;5013546;28;20113;-53
2022/06/03 00:57:55;;;;;;;4.72;1.70;;;;;;;;;;5012826;28;20033;-51
2022/06/03 01:00:21;;;;;;;;;;;;;;;;;;5013831;28;20030;-52
2022/06/03 01:02:55;;;;;;;1.80;1.58;;;;;;;;;;5011993;28;19910;-54
2022/06/03 01:05:33;;;;;;;1.83;1.58;;;;;;;;;;5013475;28;20045;-53
2022/06/03 01:08:09;;;;;;;1.85;1.20;;;;;;;;;;5012823;28;20029;-51
2022/06/03 01:10:38;;;;;;;3.58;1.58;;;;;;;;;;5009066;28;20018;-50
2022/06/03 01:13:36;;;;;;;2.22;1.40;;;;;;;;;;5012808;28;20030;-53
2022/06/03 01:16:05;;;;;;;2.13;1.50;;;;;;;;;;4980218;28;20074;-52
2022/06/03 01:18:38;;;;;;;2.40;1.48;;;;;;;;;;5013522;28;20062;-55
2022/06/03 01:21:13;;;;;;;1.80;1.42;;;;;;;;;;5013256;28;20037;-52
2022/06/03 01:23:59;;;;;;;1.90;1.38;;;;;;;;;;5006182;28;20030;-52
2022/06/03 01:26:38;;;;;;;2.35;1.40;;;;;;;;;;5002390;28;20125;-54
2022/06/03 01:29:11;;;;;;;2.22;1.80;;;;;;;;;;5013189;28;20062;-51
2022/06/03 01:31:37;;;;;;;1.77;1.40;;;;;;;;;;5011873;28;20049;-51
2022/06/03 01:34:03;;;;;;;1.70;1.55;;;;;;;;;;5012746;28;20061;-51
2022/06/03 01:36:32;;;;;;;2.17;1.55;;;;;;;;;;5012714;28;20080;-52
2022/06/03 01:39:10;;;;;;;1.88;1.42;;;;;;;;;;5012557;28;20113;-50
2022/06/03 01:41:49;;;;;;;2.58;1.65;;;;;;;;;;5011719;28;20030;-50
2022/06/03 01:44:15;;;;;;;2.30;1.20;;;;;;;;;;5012738;28;20121;-50
2022/06/03 01:46:59;;;;;;;1.75;1.50;;;;;;;;;;5011765;28;20519;-51
2022/06/03 01:49:28;;;;;;;1.92;1.60;;;;;;;;;;5012457;28;20092;-51
2022/06/03 01:52:23;;;;;;;2.22;1.65;;;;;;;;;;5011144;28;20021;-51
2022/06/03 01:55:07;;;;;;;1.52;1.40;;;;;;;;;;5011354;28;20040;-50
2022/06/03 01:57:59;;;;;;;2.25;1.92;;;;;;;;;;5014611;28;20022;-52
2022/06/03 02:00:33;;;;;;;2.47;1.27;;;;;;;;;;4984067;28;20046;-54
2022/06/03 02:03:24;;;;;;;2.67;1.65;;;;;;;;;;5014118;28;20052;-52
2022/06/03 02:06:08;;;;;;;1.83;1.40;;;;;;;;;;5011355;28;20021;-51
2022/06/03 02:08:52;;;;;;;1.80;1.50;;;;;;;;;;5011728;28;20033;-51
2022/06/03 02:11:30;;;;;;;2.15;1.52;;;;;;;;;;5012464;28;20108;-49
2022/06/03 02:14:17;;;;;;;4.25;1.63;;;;;;;;;;5011045;28;20051;-54
2022/06/03 02:16:55;;;;;;;2.88;1.70;;;;;;;;;;5011292;28;20036;-52
2022/06/03 02:19:50;;;;;;;1.60;1.30;;;;;;;;;;5012049;28;20101;-52
2022/06/03 02:22:28;;;;;;;3.95;1.70;;;;;;;;;;5006475;28;20033;-50
2022/06/03 02:25:13;;;;;;;2.30;1.88;;;;;;;;;;5011376;28;20025;-51
2022/06/03 02:27:58;;;;;;;2.30;1.48;;;;;;;;;;5010694;28;20041;-50
2022/06/03 02:30:34;;;;;;;3.00;2.00;;;;;;;;;;5007180;28;20053;-53
2022/06/03 02:32:59;;;;;;;3.22;1.77;;;;;;;;;;5010841;28;20033;-53
2022/06/03 02:35:28;;;;;;;2.30;1.50;;;;;;;;;;5011530;28;20034;-51
2022/06/03 02:37:57;;;;;;;1.20;1.10;;;;;;;;;;5010603;28;20030;-55
2022/06/03 02:40:26;;;;;;;3.63;1.70;;;;;;;;;;5011234;28;20022;-54
2022/06/03 02:43:01;;;;;;;2.75;1.77;;;;;;;;;;5010832;28;20033;-51
2022/06/03 02:45:36;;;;;;;1.98;1.50;;;;;;;;;;5011843;28;20064;-52
2022/06/03 02:48:20;;;;;;;2.35;1.50;;;;;;;;;;5009480;28;20092;-53
2022/06/03 02:51:05;;;;;;;2.78;1.50;;;;;;;;;;5010979;28;20095;-52
2022/06/03 02:53:37;;;;;;;2.75;1.70;;;;;;;;;;5006872;28;20033;-53
2022/06/03 02:56:03;;;;;;;;;;;;;;;;;;5011253;28;20033;-52
2022/06/03 02:58:55;;;;;;;1.42;1.27;;;;;;;;;;5011454;28;20370;-55
2022/06/03 03:01:21;;;;;;;;;;;;;;;;;;4985297;28;20042;-51
2022/06/03 03:03:56;;;;;;;3.90;1.58;;;;;;;;;;5009626;28;19916;-52
2022/06/03 03:06:25;;;;;;;2.10;1.52;;;;;;;;;;5011817;28;20014;-52
2022/06/03 03:09:04;;;;;;;2.38;1.77;;;;;;;;;;5010594;28;20091;-52
2022/06/03 03:11:45;;;;;;;2.00;1.40;;;;;;;;;;5010662;28;20037;-51
2022/06/03 03:14:32;;;;;;;2.35;1.67;;;;;;;;;;5011082;28;20109;-53
2022/06/03 03:17:17;;;;;;;2.35;1.63;;;;;;;;;;5010635;28;20080;-54
2022/06/03 03:20:01;;;;;;;3.22;1.80;;;;;;;;;;5006333;28;20053;-51
2022/06/03 03:22:39;;;;;;;2.25;1.60;;;;;;;;;;5010752;28;20390;-50
2022/06/03 03:25:11;;;;;;;2.70;1.65;;;;;;;;;;5010845;28;20057;-54
2022/06/03 03:28:05;;;;;;;2.55;1.40;;;;;;;;;;5010852;28;20026;-51
2022/06/03 03:30:37;;;;;;;2.53;2.08;;;;;;;;;;5009450;28;20491;-51
2022/06/03 03:33:03;;;;;;;3.95;2.30;;;;;;;;;;5006095;28;20061;-53
2022/06/03 03:35:32;;;;;;;2.17;1.77;;;;;;;;;;5010796;28;20057;-53
2022/06/03 03:38:17;;;;;;;2.75;2.28;;;;;;;;;;5010554;28;20084;-55
2022/06/03 03:40:45;;;;;;;2.85;1.50;;;;;;;;;;5006016;28;20521;-53
2022/06/03 03:43:21;;;;;;;2.75;2.00;;;;;;;;;;5010935;28;20083;-52
2022/06/03 03:45:47;;;;;;;1.98;1.60;;;;;;;;;;5007342;28;20050;-54
2022/06/03 03:48:41;;;;;;;3.03;1.67;;;;;;;;;;5010198;28;20547;-50
2022/06/03 03:51:26;;;;;;;2.33;1.70;;;;;;;;;;5008134;28;20033;-51
2022/06/03 03:54:10;;;;;;;3.15;1.50;;;;;;;;;;5007258;28;20061;-51
2022/06/03 03:56:36;;;;;;;3.67;1.70;;;;;;;;;;5005206;28;20471;-53
2022/06/03 03:59:11;;;;;;;2.25;1.60;;;;;;;;;;5009689;28;20091;-54
2022/06/03 04:01:56;;;;;;;2.05;1.80;;;;;;;;;;5007799;28;20050;-51
2022/06/03 04:04:42;;;;;;;1.65;1.35;;;;;;;;;;5012833;28;20509;-50
2022/06/03 04:07:26;;;;;;;2.75;1.65;;;;;;;;;;5013901;28;20048;-53
2022/06/03 04:09:55;;;;;;;2.92;2.08;;;;;;;;;;5013750;28;20434;-55
2022/06/03 04:12:21;;;;;;;4.70;1.80;;;;;;;;;;5013884;28;20038;-51
2022/06/03 04:14:53;;;;;;;5.05;2.00;;;;;;;;;;5013804;28;20109;-54
2022/06/03 04:17:31;;;;;;;3.03;1.90;;;;;;;;;;5014055;28;20423;-51
2022/06/03 04:20:07;;;;;;;4.47;1.80;;;;;;;;;;5011754;28;20026;-53
2022/06/03 04:22:51;;;;;;;2.75;1.60;;;;;;;;;;5013969;28;20038;-52
2022/06/03 04:25:20;;;;;;;2.00;1.77;;;;;;;;;;5010658;28;20494;-53
2022/06/03 04:27:46;;;;;;;2.15;1.67;;;;;;;;;;5012860;28;20045;-51
2022/06/03 04:30:21;;;;;;;2.70;1.90;;;;;;;;;;5014262;28;20426;-50
2022/06/03 04:32:47;;;;;;;2.63;1.63;;;;;;;;;;5012929;28;20030;-49
2022/06/03 04:35:22;;;;;;;4.07;1.70;;;;;;;;;;5008529;28;20105;-52
2022/06/03 04:38:12;;;;;;;3.30;1.77;;;;;;;;;;5006592;28;20030;-51
2022/06/03 04:41:04;;;;;;;3.95;1.80;;;;;;;;;;5013643;28;20057;-51
2022/06/03 04:43:30;;;;;;;2.85;2.42;;;;;;;;;;5013486;28;20471;-50
2022/06/03 04:46:19;;;;;;;2.13;1.85;;;;;;;;;;5012303;28;20085;-51
2022/06/03 04:48:54;;;;;;;3.08;1.80;;;;;;;;;;4984974;28;20033;-50
2022/06/03 04:51:26;;;;;;;2.33;1.77;;;;;;;;;;5013767;28;20022;-52
2022/06/03 04:54:12;;;;;;;3.05;2.15;;;;;;;;;;5012730;28;20057;-51
2022/06/03 04:56:38;;;;;;;1.88;1.67;;;;;;;;;;5013196;28;20034;-52
2022/06/03 04:59:23;;;;;;;2.83;1.65;;;;;;;;;;5012695;28;20991;-53
2022/06/03 05:02:01;;;;;;;2.28;1.95;;;;;;;;;;5010060;28;20080;-51
2022/06/03 05:04:30;;;;;;;2.97;1.75;;;;;;;;;;5013420;28;20026;-51
2022/06/03 05:07:14;;;;;;;2.58;1.60;;;;;;;;;;5012202;28;20119;-52
2022/06/03 05:09:43;;;;;;;2.95;1.60;;;;;;;;;;5013099;28;20095;-52
2022/06/03 05:12:12;;;;;;;3.78;2.67;;;;;;;;;;5012054;28;20038;-50
2022/06/03 05:14:57;;;;;;;2.53;1.98;;;;;;;;;;5013243;28;20036;-53
2022/06/03 05:17:39;;;;;;;2.17;1.52;;;;;;;;;;5013369;28;20092;-52
2022/06/03 05:20:05;;;;;;;;;;;;;;;;;;5010903;28;20137;-53
2022/06/03 05:22:57;;;;;;;1.77;1.50;;;;;;;;;;5013070;28;20378;-53
2022/06/03 05:25:23;;;;;;;;;;;;;;;;;;4983067;28;20048;-56
2022/06/03 05:27:56;;;;;;;2.92;2.10;;;;;;;;;;5011944;28;19909;-50
2022/06/03 05:30:25;;;;;;;3.72;1.67;;;;;;;;;;5012611;28;20080;-52
2022/06/03 05:33:10;;;;;;;2.88;2.00;;;;;;;;;;5011800;28;20044;-54
2022/06/03 05:35:45;;;;;;;2.63;1.40;;;;;;;;;;5012426;28;20041;-55
2022/06/03 05:38:37;;;;;;;5.00;1.40;;;;;;;;;;5011760;28;20033;-56
2022/06/03 05:44:24;;;;;;;4.10;1.85;;;;;;;;;;4978755;28;20040;-55
2022/06/03 05:46:59;;;;;;;2.90;1.70;;;;;;;;;;5011857;28;20054;-54
2022/06/03 05:49:32;;;;;;;2.65;1.45;;;;;;;;;;5010160;28;20608;-56
2022/06/03 05:52:17;;;;;;;3.92;1.70;;;;;;;;;;5011688;28;20080;-56
2022/06/03 05:54:47;;;;;;;4.43;1.90;;;;;;;;;;5012314;28;20117;-65
2022/06/03 05:57:38;;;;;;;3.25;1.77;;;;;;;;;;5011356;28;20096;-61
2022/06/03 06:00:13;;;;;;;4.70;1.90;;;;;;;;;;5010399;28;20041;-67
2022/06/03 06:03:01;;;;;;;4.15;1.85;;;;;;;;;;5012473;28;20034;-64
2022/06/03 06:05:36;;;;;;;7.03;2.38;;;;;;;;;;5011103;28;20475;-58
2022/06/03 06:08:14;;;;;;;6.07;1.98;;;;;;;;;;5007176;28;20018;-63
2022/06/03 06:10:43;;;;;;;7.85;1.98;;;;;;;;;;5011898;28;20033;-62
2022/06/03 06:13:27;;;;;;;2.53;1.52;;;;;;;;;;5003696;28;20030;-63
2022/06/03 06:16:08;;;;;;;2.40;1.58;;;;;;;;;;5007023;28;20030;-63
2022/06/03 06:18:48;;;;;;;3.05;1.50;;;;;;;;;;5010418;28;20467;-64
2022/06/03 06:21:30;;;;;;;4.07;1.60;;;;;;;;;;5004081;28;20025;-58
2022/06/03 06:24:09;;;;;;;2.92;1.77;;;;;;;;;;5007269;28;20060;-60
2022/06/03 06:26:40;;;;;;;2.85;1.90;;;;;;;;;;5008445;28;20480;-62
2022/06/03 06:29:09;;;;;;;3.38;1.85;;;;;;;;;;5003380;28;20038;-64
2022/06/03 06:31:41;;;;;;;2.40;1.63;;;;;;;;;;5011550;28;20022;-66
2022/06/03 06:34:07;;;;;;;2.63;1.70;;;;;;;;;;5010624;28;20045;-65
2022/06/03 06:36:52;;;;;;;6.57;2.70;;;;;;;;;;5001958;28;20332;-67
2022/06/03 06:39:25;;;;;;;2.88;1.73;;;;;;;;;;5006492;28;20095;-66
2022/06/03 06:42:11;;;;;;;4.03;1.85;;;;;;;;;;5012990;28;20026;-62
2022/06/03 06:45:04;;;;;;;2.55;1.52;;;;;;;;;;5011559;28;20030;-67
2022/06/03 06:47:45;;;;;;;3.35;1.50;;;;;;;;;;5010947;28;20072;-68
2022/06/03 06:50:11;;;;;;;2.65;1.73;;;;;;;;;;5010579;28;20118;-68
2022/06/03 06:52:56;;;;;;;4.05;2.00;;;;;;;;;;5010998;28;20386;-67
2022/06/03 06:55:25;;;;;;;4.65;1.92;;;;;;;;;;5010370;28;20034;-67
2022/06/03 06:57:54;;;;;;;4.88;2.33;;;;;;;;;;5010902;28;20053;-67
2022/06/03 07:00:24;;;;;;;3.22;1.80;;;;;;;;;;5011260;28;20030;-66
2022/06/03 07:02:50;;;;;;;4.38;2.00;;;;;;;;;;5002166;28;20121;-66
2022/06/03 07:05:35;;;;;;;4.70;2.10;;;;;;;;;;5009659;28;20113;-65
2022/06/03 07:08:06;;;;;;;5.25;1.98;;;;;;;;;;5007521;28;20037;-66
2022/06/03 07:10:54;;;;;;;2.47;1.70;;;;;;;;;;5010337;28;20060;-66
2022/06/03 07:13:39;;;;;;;4.47;1.77;;;;;;;;;;5007911;28;20036;-66
2022/06/03 07:16:05;;;;;;;4.28;2.17;;;;;;;;;;5010044;28;20108;-67
2022/06/03 07:21:38;;;;;;;6.30;2.55;;;;;;;;;;5010239;28;20029;-66
2022/06/03 07:24:10;;;;;;;3.63;2.40;;;;;;;;;;5007519;28;20026;-66
2022/06/03 07:26:38;;;;;;;4.03;2.25;;;;;;;;;;5010999;28;20128;-67
2022/06/03 07:29:16;;;;;;;5.45;2.35;;;;;;;;;;5010128;28;20026;-64
2022/06/03 07:31:49;;;;;;;3.25;1.98;;;;;;;;;;5015445;28;20494;-60
2022/06/03 07:34:19;;;;;;;3.90;2.20;;;;;;;;;;5006330;28;20149;-62
2022/06/03 07:36:45;;;;;;;4.82;2.40;;;;;;;;;;5014949;28;20491;-61
2022/06/03 07:39:30;;;;;;;4.70;2.38;;;;;;;;;;5010945;28;20087;-61
2022/06/03 07:42:13;;;;;;;3.45;2.08;;;;;;;;;;5007410;28;20052;-60
2022/06/03 07:44:58;;;;;;;2.72;2.13;;;;;;;;;;5014303;28;20022;-61
2022/06/03 07:47:25;;;;;;;2.80;1.60;;;;;;;;;;5014244;28;20042;-62
2022/06/03 07:49:59;;;;;;;3.05;1.80;;;;;;;;;;5011206;28;20022;-61
2022/06/03 07:52:34;;;;;;;4.13;1.98;;;;;;;;;;5014504;28;20475;-61
2022/06/03 07:55:05;;;;;;;5.65;2.22;;;;;;;;;;5013630;28;20065;-63
2022/06/03 07:57:32;;;;;;;4.53;1.85;;;;;;;;;;5014512;28;20030;-59
2022/06/03 08:00:02;;;;;;;2.08;1.60;;;;;;;;;;5007915;28;20096;-60
2022/06/03 08:02:28;;;;;;;3.08;1.60;;;;;;;;;;4998477;28;20029;-61
2022/06/03 08:05:07;;;;;;;2.58;1.80;;;;;;;;;;5012335;28;20029;-61
2022/06/03 08:13:08;;;;;;;4.70;1.73;;;;;;;;;;5013098;28;20092;-60
2022/06/03 08:15:36;;;;;;;1.60;1.50;;;;;;;;;;5013899;28;20034;-60
2022/06/03 08:18:06;;;;;;;3.25;1.60;;;;;;;;;;5004209;28;20033;-61
2022/06/03 08:20:41;;;;;;;3.83;1.63;;;;;;;;;;5012766;28;20414;-60
2022/06/03 08:23:07;;;;;;;3.33;1.83;;;;;;;;;;5010207;28;20121;-61
2022/06/03 08:25:38;;;;;;;6.07;1.77;;;;;;;;;;5011899;28;20056;-60
2022/06/03 08:28:04;;;;;;;3.58;1.70;;;;;;;;;;5012596;28;20022;-58
2022/06/03 08:30:30;;;;;;;3.30;1.65;;;;;;;;;;5012882;28;20371;-59
2022/06/03 08:32:59;;;;;;;3.10;2.15;;;;;;;;;;5013329;28;20438;-59
2022/06/03 08:35:27;;;;;;;3.47;1.80;;;;;;;;;;5012363;28;20022;-60
2022/06/03 08:37:56;;;;;;;4.53;1.92;;;;;;;;;;5012477;28;20033;-59
2022/06/03 08:40:31;;;;;;;2.63;2.05;;;;;;;;;;5011582;28;20105;-48
2022/06/03 08:43:09;;;;;;;4.18;1.80;;;;;;;;;;5013030;28;20030;-54
2022/06/03 08:45:47;;;;;;;5.10;1.88;;;;;;;;;;5012513;28;20018;-52
2022/06/03 08:48:14;;;;;;;4.03;1.83;;;;;;;;;;5007778;28;20406;-56
2022/06/03 08:50:46;;;;;;;2.20;1.63;;;;;;;;;;5013270;28;20026;-49
2022/06/03 08:53:23;;;;;;;2.17;1.60;;;;;;;;;;5012291;28;20029;-50
2022/06/03 08:55:52;;;;;;;5.10;1.58;;;;;;;;;;5011283;28;20105;-48
2022/06/03 08:58:18;;;;;;;3.72;2.25;;;;;;;;;;5012375;28;20013;-49
2022/06/03 09:00:48;;;;;;;2.53;1.80;;;;;;;;;;5012671;28;20030;-50
2022/06/03 09:03:17;;;;;;;3.33;1.67;;;;;;;;;;5012668;28;20022;-49
2022/06/03 09:05:45;;;;;;;3.92;2.05;;;;;;;;;;5012828;28;20026;-51
2022/06/03 09:08:11;;;;;;;4.57;1.70;;;;;;;;;;5010455;28;20017;-52
2022/06/03 09:10:41;;;;;;;4.15;2.38;;;;;;;;;;5013344;28;20025;-50
2022/06/03 09:13:12;;;;;;;4.80;2.00;;;;;;;;;;5011722;28;20379;-53
2022/06/03 09:15:40;;;;;;;3.88;1.90;;;;;;;;;;5012632;28;20026;-51
2022/06/03 09:18:10;;;;;;;3.30;1.52;;;;;;;;;;5011845;28;20415;-53
2022/06/03 09:20:45;;;;;;;6.10;1.83;;;;;;;;;;5013026;28;20107;-52
2022/06/03 09:23:14;;;;;;;2.65;1.58;;;;;;;;;;5011602;28;20511;-51
2022/06/03 09:25:48;;;;;;;2.47;1.80;;;;;;;;;;5012681;28;20467;-53
2022/06/03 09:28:34;;;;;;;2.45;1.83;;;;;;;;;;5008372;28;20014;-54
2022/06/03 09:31:02;;;;;;;5.00;1.95;;;;;;;;;;5012342;28;20030;-51
2022/06/03 09:33:29;;;;;;;1.90;1.60;;;;;;;;;;5012482;28;20026;-52
2022/06/03 09:35:57;;;;;;;5.38;1.90;;;;;;;;;;5003672;28;20120;-51
2022/06/03 09:38:25;;;;;;;4.72;1.90;;;;;;;;;;5011832;28;20456;-51
2022/06/03 09:40:52;;;;;;;7.45;1.73;;;;;;;;;;5011335;28;20029;-53
2022/06/03 09:43:45;;;;;;;5.50;2.33;;;;;;;;;;5010356;28;20033;-53
2022/06/03 09:46:12;;;;;;;4.55;2.15;;;;;;;;;;5007655;28;20479;-54
2022/06/03 09:48:41;;;;;;;4.97;2.10;;;;;;;;;;5012484;28;20548;-53
2022/06/03 09:51:11;;;;;;;5.03;2.42;;;;;;;;;;5009529;28;20123;-50
2022/06/03 09:53:42;;;;;;;2.25;1.90;;;;;;;;;;5012487;28;20026;-51
2022/06/03 09:56:13;;;;;;;2.33;1.67;;;;;;;;;;5010220;28;20017;-51
2022/06/03 09:58:39;;;;;;;4.80;1.50;;;;;;;;;;5007495;28;20022;-53
2022/06/03 10:01:09;;;;;;;4.90;1.60;;;;;;;;;;5008971;28;20167;-54
2022/06/03 10:03:35;;;;;;;4.65;1.80;;;;;;;;;;5003884;28;20037;-52
2022/06/03 10:06:01;;;;;;;2.78;1.83;;;;;;;;;;5008078;28;20375;-50
2022/06/03 10:08:28;;;;;;;3.38;2.15;;;;;;;;;;5009754;28;20511;-49
2022/06/03 10:13:42;;;;;;;2.53;1.70;;;;;;;;;;5007427;28;20522;-50
2022/06/03 10:16:10;;;;;;;4.68;2.03;;;;;;;;;;5009525;28;20045;-52
2022/06/03 10:18:42;;;;;;;4.43;2.10;;;;;;;;;;5010409;28;20022;-50
2022/06/03 10:21:08;;;;;;;1.88;1.63;;;;;;;;;;5005419;28;20034;-53
2022/06/03 10:23:36;;;;;;;3.08;1.63;;;;;;;;;;5007669;28;20029;-53
2022/06/03 10:26:03;;;;;;;3.83;1.77;;;;;;;;;;5011275;28;20030;-52
2022/06/03 10:28:37;;;;;;;2.75;2.00;;;;;;;;;;5010853;28;20034;-50
2022/06/03 10:31:05;;;;;;;3.80;1.73;;;;;;;;;;5010145;28;20378;-54
2022/06/03 10:33:31;;;;;;;2.58;1.60;;;;;;;;;;5011599;28;20032;-51
2022/06/03 10:35:59;;;;;;;3.05;1.60;;;;;;;;;;5010573;28;20030;-53
2022/06/03 10:38:27;;;;;;;2.58;1.92;;;;;;;;;;5009467;28;20032;-52
2022/06/03 10:40:53;;;;;;;3.47;1.67;;;;;;;;;;5007135;28;20475;-50
2022/06/03 10:43:30;;;;;;;1.77;1.38;;;;;;;;;;5010052;28;20115;-52
2022/06/03 10:46:13;;;;;;;3.40;1.80;;;;;;;;;;5005330;28;20062;-50
2022/06/03 10:48:39;;;;;;;3.92;2.20;;;;;;;;;;4992238;28;21061;-52
2022/06/03 11:02:35;;;;;;;2.22;1.70;;;;;;;;;;5011154;28;20093;-51
2022/06/03 11:05:07;;;;;;;3.22;1.67;;;;;;;;;;5010580;28;20112;-50
2022/06/03 11:07:35;;;;;;;2.00;1.60;;;;;;;;;;5010724;28;20018;-51
2022/06/03 11:10:06;;;;;;;2.33;2.13;;;;;;;;;;5015825;28;20026;-50
2022/06/03 11:12:32;;;;;;;2.30;1.77;;;;;;;;;;5013933;28;20065;-50
2022/06/03 11:14:58;;;;;;;2.42;1.70;;;;;;;;;;5017453;28;20285;-49
2022/06/03 11:17:25;;;;;;;2.30;1.70;;;;;;;;;;5015698;28;20105;-51
2022/06/03 11:19:56;;;;;;;5.32;2.00;;;;;;;;;;5017211;28;20034;-51
2022/06/03 11:22:39;;;;;;;2.45;2.13;;;;;;;;;;5016361;28;20080;-49
2022/06/03 11:25:05;;;;;;;1.77;1.60;;;;;;;;;;5017330;28;20064;-49
2022/06/03 11:27:34;;;;;;;4.50;2.17;;;;;;;;;;5017011;28;20030;-51
2022/06/03 11:30:04;;;;;;;2.38;1.63;;;;;;;;;;5017141;28;20038;-49
2022/06/03 11:32:32;;;;;;;3.45;2.20;;;;;;;;;;5016714;28;20025;-49
2022/06/03 11:35:02;;;;;;;3.15;2.03;;;;;;;;;;5016865;28;20037;-49
2022/06/03 11:37:31;;;;;;;2.30;1.50;;;;;;;;;;5016750;28;20022;-50
2022/06/03 11:40:01;;;;;;;3.53;1.52;;;;;;;;;;5017127;28;20029;-52
2022/06/03 11:42:30;;;;;;;2.05;1.70;;;;;;;;;;5016603;28;20042;-51
2022/06/03 11:44:59;;;;;;;2.25;1.60;;;;;;;;;;5016990;28;20110;-51
2022/06/03 11:47:31;;;;;;;5.13;1.95;;;;;;;;;;4995182;28;20539;-51
2022/06/03 11:49:57;;;;;;;3.47;1.85;;;;;;;;;;4998292;28;20052;-49
2022/06/03 11:52:23;;;;;;;2.53;1.70;;;;;;;;;;4996040;28;20507;-53
2022/06/03 11:54:51;;;;;;;2.33;1.80;;;;;;;;;;4997913;28;20472;-50
2022/06/03 11:57:17;;;;;;;2.00;1.65;;;;;;;;;;4996403;28;20038;-50
2022/06/03 12:00:19;;;;;;;1.85;1.58;;;;;;;;;;4997898;28;20136;-51
2022/06/03 12:02:45;;;;;;;3.20;1.52;;;;;;;;;;4970116;28;20133;-50
2022/06/03 12:05:30;;;;;;;3.08;1.83;;;;;;;;;;4995847;28;20165;-53
2022/06/03 12:08:03;;;;;;;3.67;1.70;;;;;;;;;;4997289;28;20046;-52
2022/06/03 12:10:42;;;;;;;2.17;1.67;;;;;;;;;;4996069;28;20624;-50
2022/06/03 12:13:15;;;;;;;2.42;1.70;;;;;;;;;;4996684;28;20211;-51
2022/06/03 12:15:44;;;;;;;2.25;1.52;;;;;;;;;;4996311;28;20018;-52
2022/06/03 12:18:10;;;;;;;1.70;1.50;;;;;;;;;;4992777;28;20038;-53
2022/06/03 12:20:47;;;;;;;2.65;2.00;;;;;;;;;;4994409;28;20108;-49
2022/06/03 12:23:13;;;;;;;1.65;1.48;;;;;;;;;;4993094;28;20038;-54
2022/06/03 12:25:57;;;;;;;2.33;1.80;;;;;;;;;;4994417;28;20027;-49
2022/06/03 12:28:25;;;;;;;4.45;1.98;;;;;;;;;;4993527;28;20498;-49
2022/06/03 12:30:56;;;;;;;2.75;1.70;;;;;;;;;;4994124;28;20436;-50
2022/06/03 12:33:31;;;;;;;3.70;2.05;;;;;;;;;;4992916;28;20141;-49
2022/06/03 12:36:00;;;;;;;3.15;1.45;;;;;;;;;;4990484;28;20038;-49
2022/06/03 12:38:27;;;;;;;3.33;1.67;;;;;;;;;;4993161;28;20106;-50
2022/06/03 12:40:57;;;;;;;2.30;1.70;;;;;;;;;;4993853;28;20384;-50
2022/06/03 12:43:29;;;;;;;2.50;1.70;;;;;;;;;;4993011;28;20064;-49
2022/06/03 12:46:01;;;;;;;3.25;1.58;;;;;;;;;;4998664;28;20053;-51
2022/06/03 12:48:35;;;;;;;4.10;1.90;;;;;;;;;;5010649;28;20463;-50
2022/06/03 12:51:22;;;;;;;3.05;1.35;;;;;;;;;;5011358;28;20030;-53
2022/06/03 12:53:49;;;;;;;1.83;1.50;;;;;;;;;;5004681;28;20029;-49
2022/06/03 12:56:33;;;;;;;4.43;2.03;;;;;;;;;;5004665;28;20352;-54
2022/06/03 12:59:02;;;;;;;2.25;1.73;;;;;;;;;;5005084;28;20022;-50
2022/06/03 13:01:48;;;;;;;2.67;2.40;;;;;;;;;;5003294;28;20029;-53
2022/06/03 13:04:36;;;;;;;2.78;1.52;;;;;;;;;;4994874;28;20026;-51
2022/06/03 13:07:13;;;;;;;1.83;1.70;;;;;;;;;;5006546;28;20034;-51
2022/06/03 13:09:55;;;;;;;3.50;1.70;;;;;;;;;;5004504;28;20057;-53
2022/06/03 13:12:27;;;;;;;4.25;2.10;;;;;;;;;;5000379;28;20032;-49
2022/06/03 13:14:54;;;;;;;3.78;1.50;;;;;;;;;;5005005;28;20046;-54
2022/06/03 13:17:38;;;;;;;4.53;1.70;;;;;;;;;;5004151;28;20045;-52
2022/06/03 13:20:05;;;;;;;4.05;1.92;;;;;;;;;;5004637;28;20060;-51
2022/06/03 13:22:45;;;;;;;2.63;1.88;;;;;;;;;;4999410;28;20025;-51
2022/06/03 13:25:14;;;;;;;10.30;2.17;;;;;;;;;;5003063;28;20018;-50
2022/06/03 13:27:40;;;;;;;1.90;1.70;;;;;;;;;;5004390;28;20101;-53
2022/06/03 13:30:12;;;;;;;5.35;2.00;;;;;;;;;;5004654;28;20087;-53
2022/06/03 13:32:51;;;;;;;2.20;1.70;;;;;;;;;;5001602;28;20033;-51
2022/06/03 13:35:18;;;;;;;5.20;1.95;;;;;;;;;;5004602;28;20072;-53
2022/06/03 13:37:52;;;;;;;6.60;2.38;;;;;;;;;;5005490;28;20025;-50
2022/06/03 13:40:38;;;;;;;4.93;2.22;;;;;;;;;;5002261;28;20041;-51
2022/06/03 13:43:14;;;;;;;4.38;2.53;;;;;;;;;;5002848;28;20030;-52
2022/06/03 13:45:47;;;;;;;5.35;2.50;;;;;;;;;;5006746;28;20038;-49
2022/06/03 13:48:20;;;;;;;2.50;2.03;;;;;;;;;;5005801;28;20379;-49
2022/06/03 13:50:46;;;;;;;5.47;2.30;;;;;;;;;;5003008;28;20038;-48
2022/06/03 13:53:13;;;;;;;4.60;2.38;;;;;;;;;;4990101;28;20041;-49
2022/06/03 13:55:44;;;;;;;5.63;2.35;;;;;;;;;;5006041;28;20072;-51
2022/06/03 13:58:18;;;;;;;3.58;2.33;;;;;;;;;;5006275;28;20037;-51
2022/06/03 14:00:50;;;;;;;6.63;2.53;;;;;;;;;;5002753;28;20434;-52
2022/06/03 14:03:18;;;;;;;3.50;2.45;;;;;;;;;;5006638;28;20033;-52
2022/06/03 14:05:55;;;;;;;4.53;1.98;;;;;;;;;;5006547;28;20030;-49
2022/06/03 14:08:27;;;;;;;3.92;2.05;;;;;;;;;;5003584;28;20049;-53
2022/06/03 14:11:08;;;;;;;4.72;2.40;;;;;;;;;;5005129;28;20431;-53
2022/06/03 14:13:45;;;;;;;4.97;2.63;;;;;;;;;;5003869;28;20045;-54
2022/06/03 14:16:29;;;;;;;6.47;2.97;;;;;;;;;;5006685;28;20026;-50
2022/06/03 14:19:01;;;;;;;3.03;2.00;;;;;;;;;;5004159;28;20026;-50
2022/06/03 14:21:33;;;;;;;3.38;2.17;;;;;;;;;;4996766;28;20479;-53
2022/06/03 14:24:02;;;;;;;2.85;1.90;;;;;;;;;;5005602;28;20037;-52
2022/06/03 14:26:31;;;;;;;9.02;2.70;;;;;;;;;;4998920;28;20515;-49
2022/06/03 14:29:03;;;;;;;3.78;2.00;;;;;;;;;;5002248;28;20593;-49
2022/06/03 14:31:37;;;;;;;5.32;2.10;;;;;;;;;;4997218;28;20033;-49
2022/06/03 14:34:23;;;;;;;4.43;2.60;;;;;;;;;;5003591;28;20033;-50
2022/06/03 14:36:51;;;;;;;4.65;2.53;;;;;;;;;;4991029;28;20093;-48
2022/06/03 14:39:20;;;;;;;3.88;2.15;;;;;;;;;;5005122;28;20105;-52
2022/06/03 14:41:50;;;;;;;4.53;2.53;;;;;;;;;;4999697;28;20375;-51
2022/06/03 14:44:18;;;;;;;5.22;3.33;;;;;;;;;;5002543;28;20030;-53
2022/06/03 14:46:56;;;;;;;5.15;3.15;;;;;;;;;;5005357;28;20066;-48
2022/06/03 14:49:26;;;;;;;6.28;3.30;;;;;;;;;;5000890;28;20025;-51
2022/06/03 14:51:59;;;;;;;4.88;3.97;;;;;;;;;;4999236;28;20507;-49
2022/06/03 14:54:27;;;;;;;8.50;4.50;;;;;;;;;;4998010;28;20038;-50
2022/06/03 14:56:55;;;;;;;6.60;5.13;;;;;;;;;;5002154;28;20479;-49
2022/06/03 14:59:24;;;;;;;6.78;4.53;;;;;;;;;;5001274;28;20037;-52
2022/06/03 15:01:52;;;;;;;9.32;4.90;;;;;;;;;;5002773;28;20112;-47
2022/06/03 15:04:30;;;;;;;13.25;4.85;;;;;;;;;;5001292;28;20022;-52
2022/06/03 15:07:07;;;;;;;7.90;4.93;;;;;;;;;;5002496;28;20036;-47
2022/06/03 15:09:44;;;;;;;9.38;5.32;;;;;;;;;;4996519;28;20097;-45
2022/06/03 15:12:22;;;;;;;9.02;4.90;;;;;;;;;;5009062;28;20084;-46
2022/06/03 15:14:48;;;;;;;7.10;4.88;;;;;;;;;;5000419;28;20037;-46
2022/06/03 15:17:15;;;;;;;10.35;4.53;;;;;;;;;;5001031;28;20038;-45
2022/06/03 15:19:44;;;;;;;6.07;4.97;;;;;;;;;;5004376;28;20022;-45
2022/06/03 15:22:13;;;;;;;9.38;5.07;;;;;;;;;;5002503;28;20061;-44
2022/06/03 15:24:44;;;;;;;5.60;4.45;;;;;;;;;;4995879;28;20535;-46
2022/06/03 15:27:11;;;;;;;6.00;5.05;;;;;;;;;;5005582;28;20468;-45
2022/06/03 15:29:38;;;;;;;7.55;5.68;;;;;;;;;;5003846;28;20418;-45
2022/06/03 15:32:05;;;;;;;11.20;5.28;;;;;;;;;;4999786;28;20014;-45
2022/06/03 15:34:33;;;;;;;7.00;5.38;;;;;;;;;;4997637;28;20037;-45
2022/06/03 15:36:59;;;;;;;8.35;6.03;;;;;;;;;;5006884;28;20037;-45
2022/06/03 15:39:29;;;;;;;5.97;5.28;;;;;;;;;;5009934;28;20028;-45
2022/06/03 15:41:58;;;;;;;8.45;5.68;;;;;;;;;;5010930;28;20034;-45
2022/06/03 15:44:31;;;;;;;5.90;5.30;;;;;;;;;;5009555;28;20483;-48
2022/06/03 15:47:02;;;;;;;7.70;5.20;;;;;;;;;;5009798;28;20133;-45
2022/06/03 15:49:29;;;;;;;6.65;5.00;;;;;;;;;;5008275;28;20022;-45
2022/06/03 15:51:55;;;;;;;9.48;4.93;;;;;;;;;;5002700;28;20125;-47